Elk Point, Canada
Current Conditions -  °F | °C
As of 1:00 PM on Saturday 25 Oct 2014 (Local Time) from CYOD Reporting Station
Overcast Overcast  
Wind Chill: 39°   Ceiling: 16000
Heat Index: 39°   Visibility: 15mi
Dew Point: 28°   Wind: 0mph
Humidity: 65%   Direction: NA
Pressure: 29.97"   Gusts: NA
Location:  53.9°N, 110.9°W
Report Text: CYOD 251900Z 00000KT 15SM OVC160 04/M02 A2997 RMK AC6 SLP173
Loading
Personal Weather Stations






























Interactive Weather Map
Tropical Storm Tracking
New forecast layout! Learn more

10-Day Weather Forecast

Advertisements
Track Severe Weather on mobile